createdAt,value
2019-03-30T00:00:13.980Z,0
2019-03-30T00:00:40.090Z,0
2019-03-30T00:01:06.196Z,0
2019-03-30T00:01:32.306Z,0
2019-03-30T00:01:58.444Z,0
2019-03-30T00:02:24.588Z,0
2019-03-30T00:02:51.472Z,0
2019-03-30T00:03:17.574Z,0
2019-03-30T00:03:43.718Z,0
2019-03-30T00:04:09.831Z,0
2019-03-30T00:04:35.965Z,0
2019-03-30T00:05:02.074Z,0
2019-03-30T00:05:28.209Z,0
2019-03-30T00:05:54.349Z,0
2019-03-30T00:06:20.460Z,0
2019-03-30T00:06:46.567Z,0
2019-03-30T00:07:12.680Z,0
2019-03-30T00:07:38.777Z,0
2019-03-30T00:08:04.885Z,0
2019-03-30T00:08:31.030Z,0
2019-03-30T00:08:57.137Z,0
2019-03-30T00:09:23.280Z,0
2019-03-30T00:09:49.423Z,0
2019-03-30T00:10:15.553Z,0
2019-03-30T00:10:41.659Z,0
2019-03-30T00:11:08.098Z,0
2019-03-30T00:11:34.209Z,0
2019-03-30T00:12:01.311Z,0
2019-03-30T00:12:28.374Z,0
2019-03-30T00:12:54.476Z,0
2019-03-30T00:13:20.587Z,0
2019-03-30T00:13:46.714Z,0
2019-03-30T00:14:12.848Z,0
2019-03-30T00:14:38.990Z,0
2019-03-30T00:15:05.100Z,0
2019-03-30T00:15:31.210Z,0
2019-03-30T00:15:57.613Z,0
2019-03-30T00:16:23.740Z,0
2019-03-30T00:16:49.850Z,0
2019-03-30T00:17:15.959Z,0
2019-03-30T00:17:42.066Z,0
2019-03-30T00:18:08.181Z,0
2019-03-30T00:18:34.316Z,0
2019-03-30T00:19:01.420Z,0
2019-03-30T00:19:34.584Z,0
2019-03-30T00:19:56.205Z,0
2019-03-30T00:20:22.313Z,0
2019-03-30T00:20:48.428Z,0
2019-03-30T00:21:14.590Z,0
2019-03-30T00:21:40.702Z,0
2019-03-30T00:22:06.812Z,0
2019-03-30T00:22:32.915Z,0
2019-03-30T00:22:59.023Z,0
2019-03-30T00:23:25.132Z,0
2019-03-30T00:23:51.264Z,0
2019-03-30T00:24:17.378Z,0
2019-03-30T00:24:43.515Z,0
2019-03-30T00:25:09.655Z,0
2019-03-30T00:25:35.761Z,0
2019-03-30T00:26:01.870Z,0
2019-03-30T00:26:27.978Z,0
2019-03-30T00:26:54.086Z,0
2019-03-30T00:27:20.224Z,0
2019-03-30T00:27:46.328Z,0
2019-03-30T00:28:12.442Z,0
2019-03-30T00:28:38.546Z,0
2019-03-30T00:29:04.661Z,0
2019-03-30T00:29:30.762Z,0
2019-03-30T00:29:56.875Z,0
2019-03-30T00:30:23.977Z,0
2019-03-30T00:30:50.081Z,0
2019-03-30T00:31:16.193Z,0
2019-03-30T00:31:42.307Z,0
2019-03-30T00:32:08.438Z,0
2019-03-30T00:32:34.539Z,0
2019-03-30T00:33:00.681Z,0
2019-03-30T00:33:26.818Z,0
2019-03-30T00:33:52.929Z,0
2019-03-30T00:34:19.041Z,0
2019-03-30T00:34:45.181Z,0
2019-03-30T00:35:11.287Z,0
2019-03-30T00:35:37.399Z,0
2019-03-30T00:36:03.535Z,0
2019-03-30T00:36:29.686Z,0
2019-03-30T00:36:55.795Z,0
2019-03-30T00:37:21.904Z,0
2019-03-30T00:37:48.048Z,0
2019-03-30T00:38:14.155Z,0
2019-03-30T00:38:40.259Z,0
2019-03-30T00:39:06.366Z,0
2019-03-30T00:39:32.474Z,0
2019-03-30T00:39:58.588Z,0
2019-03-30T00:40:24.710Z,0
2019-03-30T00:40:50.824Z,0
2019-03-30T00:41:16.934Z,0
2019-03-30T00:41:43.040Z,0
2019-03-30T00:42:09.145Z,0
2019-03-30T00:42:35.256Z,0
2019-03-30T00:43:01.364Z,0
2019-03-30T00:43:27.498Z,0
2019-03-30T00:43:53.606Z,0
2019-03-30T00:44:19.714Z,0
2019-03-30T00:44:45.818Z,0
2019-03-30T00:45:11.930Z,0
2019-03-30T00:45:38.038Z,0
2019-03-30T00:46:04.175Z,0
2019-03-30T00:46:30.283Z,0
2019-03-30T00:46:56.413Z,0
2019-03-30T00:47:22.529Z,0
2019-03-30T00:47:48.640Z,0
2019-03-30T00:48:14.749Z,0
2019-03-30T00:48:40.861Z,0
2019-03-30T00:49:06.962Z,0
2019-03-30T00:49:33.068Z,0
2019-03-30T00:50:01.163Z,0
2019-03-30T00:50:27.296Z,0
2019-03-30T00:50:53.410Z,0
2019-03-30T00:51:19.518Z,0
2019-03-30T00:51:45.631Z,0
2019-03-30T00:52:11.769Z,0
2019-03-30T00:52:37.882Z,0
2019-03-30T00:53:04.021Z,0
2019-03-30T00:53:30.129Z,0
2019-03-30T00:53:56.245Z,0
2019-03-30T00:54:22.374Z,0
2019-03-30T00:54:48.479Z,0
2019-03-30T00:55:14.589Z,0
2019-03-30T00:55:40.708Z,0
2019-03-30T00:56:06.815Z,0
2019-03-30T00:56:32.930Z,0
2019-03-30T00:56:59.034Z,0
2019-03-30T00:57:25.167Z,0
2019-03-30T00:57:51.275Z,0
2019-03-30T00:58:17.390Z,0
2019-03-30T00:58:44.517Z,0
2019-03-30T00:59:10.619Z,0
2019-03-30T00:59:36.737Z,0
2019-03-30T01:00:02.900Z,0
2019-03-30T01:00:29.031Z,0
2019-03-30T01:00:55.140Z,0
2019-03-30T01:01:21.250Z,0
2019-03-30T01:01:47.356Z,0
2019-03-30T01:02:13.500Z,0
2019-03-30T01:02:39.613Z,0
2019-03-30T01:03:05.723Z,0
2019-03-30T01:03:31.858Z,0
2019-03-30T01:03:57.970Z,0
2019-03-30T01:04:24.105Z,0
2019-03-30T01:04:50.219Z,0
2019-03-30T01:05:16.357Z,0
2019-03-30T01:05:42.494Z,0
2019-03-30T01:06:08.811Z,0
2019-03-30T01:06:34.919Z,0
2019-03-30T01:07:01.025Z,0
2019-03-30T01:07:27.170Z,0
2019-03-30T01:07:53.281Z,0
2019-03-30T01:08:19.390Z,0
2019-03-30T01:08:45.524Z,0
2019-03-30T01:09:11.662Z,0
2019-03-30T01:09:37.769Z,0
2019-03-30T01:10:03.908Z,0
2019-03-30T01:10:30.042Z,0
2019-03-30T01:10:56.149Z,0
2019-03-30T01:11:22.264Z,0
2019-03-30T01:11:48.369Z,0
2019-03-30T01:12:14.479Z,0
2019-03-30T01:12:40.575Z,0
2019-03-30T01:13:06.682Z,0
2019-03-30T01:13:32.813Z,0
2019-03-30T01:13:58.914Z,0
2019-03-30T01:14:25.051Z,0
2019-03-30T01:14:51.157Z,0
2019-03-30T01:15:17.270Z,0
2019-03-30T01:15:43.397Z,0
2019-03-30T01:16:09.507Z,0
2019-03-30T01:16:35.618Z,0
2019-03-30T01:17:01.723Z,0
2019-03-30T01:17:27.858Z,0
2019-03-30T01:17:53.999Z,0
2019-03-30T01:18:20.104Z,0
2019-03-30T01:18:46.241Z,0
2019-03-30T01:19:12.354Z,0
2019-03-30T01:19:38.456Z,0
2019-03-30T01:20:06.563Z,0
2019-03-30T01:20:32.678Z,0
2019-03-30T01:20:58.794Z,0
2019-03-30T01:21:24.895Z,0
2019-03-30T01:21:51.007Z,0
2019-03-30T01:22:17.140Z,0
2019-03-30T01:22:43.243Z,0
2019-03-30T01:23:09.355Z,0
2019-03-30T01:23:35.468Z,0
2019-03-30T01:24:01.578Z,0
2019-03-30T01:24:27.689Z,0
2019-03-30T01:24:53.796Z,0
2019-03-30T01:25:19.905Z,0
2019-03-30T01:25:46.040Z,0
2019-03-30T01:26:12.237Z,0
2019-03-30T01:26:38.331Z,0
2019-03-30T01:27:04.438Z,0
2019-03-30T01:27:30.548Z,0
2019-03-30T01:27:56.650Z,0
2019-03-30T01:28:22.758Z,0
2019-03-30T01:28:48.867Z,0
2019-03-30T01:29:14.979Z,0
2019-03-30T01:29:41.112Z,0
2019-03-30T01:30:07.219Z,0
2019-03-30T01:30:33.393Z,0
2019-03-30T01:30:59.501Z,0
2019-03-30T01:31:25.635Z,0
2019-03-30T01:31:51.739Z,0
2019-03-30T01:32:17.851Z,0
2019-03-30T01:32:44.971Z,0
2019-03-30T01:33:11.112Z,0
2019-03-30T01:33:37.218Z,0
2019-03-30T01:34:03.320Z,0
2019-03-30T01:34:29.457Z,0
2019-03-30T01:34:55.570Z,0
2019-03-30T01:35:21.977Z,0
2019-03-30T01:35:48.287Z,0
2019-03-30T01:36:14.396Z,0
2019-03-30T01:36:40.499Z,0
2019-03-30T01:37:06.613Z,0
2019-03-30T01:37:32.711Z,0
2019-03-30T01:37:58.819Z,0
2019-03-30T01:38:24.932Z,0
2019-03-30T01:38:51.074Z,0
2019-03-30T01:39:17.179Z,0
2019-03-30T01:39:43.287Z,0
2019-03-30T01:40:09.400Z,0
2019-03-30T01:40:35.505Z,0
2019-03-30T01:41:01.614Z,0
2019-03-30T01:41:27.779Z,0
2019-03-30T01:41:53.947Z,0
2019-03-30T01:42:20.056Z,0
2019-03-30T01:42:46.160Z,0
2019-03-30T01:43:12.307Z,0
2019-03-30T01:43:38.411Z,0
2019-03-30T01:44:04.520Z,0
2019-03-30T01:44:30.622Z,0
2019-03-30T01:44:56.731Z,0
2019-03-30T01:45:22.840Z,0
2019-03-30T01:45:49.068Z,0
2019-03-30T01:46:15.129Z,0
2019-03-30T01:46:41.239Z,0
2019-03-30T01:47:07.342Z,0
2019-03-30T01:47:33.535Z,0
2019-03-30T01:47:59.604Z,0
2019-03-30T01:48:25.712Z,0
2019-03-30T01:48:51.820Z,0
2019-03-30T01:49:17.954Z,0
2019-03-30T01:49:44.062Z,0
2019-03-30T01:50:17.457Z,0
2019-03-30T01:50:38.279Z,0
2019-03-30T01:51:04.412Z,0
2019-03-30T01:51:30.518Z,0
2019-03-30T01:51:56.632Z,0
2019-03-30T01:52:22.745Z,0
2019-03-30T01:52:48.847Z,0
2019-03-30T01:53:14.956Z,0
2019-03-30T01:53:41.069Z,0
2019-03-30T01:54:07.182Z,0
2019-03-30T01:54:33.291Z,0
2019-03-30T01:54:59.390Z,0
2019-03-30T01:55:25.502Z,0
2019-03-30T01:55:51.615Z,0
2019-03-30T01:56:17.750Z,0
2019-03-30T01:56:43.858Z,0
2019-03-30T01:57:10.001Z,0
2019-03-30T01:57:36.140Z,0
2019-03-30T01:58:02.248Z,0
2019-03-30T01:58:28.361Z,0
2019-03-30T01:58:54.491Z,0
2019-03-30T01:59:20.601Z,0
2019-03-30T01:59:46.722Z,0
2019-03-30T02:00:12.826Z,0
2019-03-30T02:00:38.931Z,0
2019-03-30T02:01:05.067Z,0
2019-03-30T02:01:31.176Z,0
2019-03-30T02:01:57.289Z,0
2019-03-30T02:02:23.427Z,0
2019-03-30T02:02:49.539Z,0
2019-03-30T02:03:15.645Z,0
2019-03-30T02:03:41.750Z,0
2019-03-30T02:04:07.887Z,0
2019-03-30T02:04:34.002Z,0
2019-03-30T02:05:00.262Z,0
2019-03-30T02:05:26.428Z,0
2019-03-30T02:05:52.556Z,0
2019-03-30T02:06:18.669Z,0
2019-03-30T02:06:44.771Z,0
2019-03-30T02:07:10.879Z,0
2019-03-30T02:07:36.988Z,0
2019-03-30T02:08:03.097Z,0
2019-03-30T02:08:29.230Z,0
2019-03-30T02:08:55.342Z,0
2019-03-30T02:09:21.451Z,0
2019-03-30T02:09:47.588Z,0
2019-03-30T02:10:13.703Z,0
2019-03-30T02:10:39.813Z,0
2019-03-30T02:11:05.919Z,0
2019-03-30T02:11:32.059Z,0
2019-03-30T02:11:58.160Z,0
2019-03-30T02:12:24.274Z,0
2019-03-30T02:12:50.384Z,0
2019-03-30T02:13:16.494Z,0
2019-03-30T02:13:42.659Z,0
2019-03-30T02:14:08.798Z,0
2019-03-30T02:14:34.906Z,0
2019-03-30T02:15:00.999Z,0
2019-03-30T02:15:27.149Z,0
2019-03-30T02:15:53.257Z,0
2019-03-30T02:16:19.395Z,0
2019-03-30T02:16:45.503Z,0
2019-03-30T02:17:11.617Z,0
2019-03-30T02:17:38.738Z,0
2019-03-30T02:18:04.850Z,0
2019-03-30T02:18:30.962Z,0
2019-03-30T02:18:57.066Z,0
2019-03-30T02:19:23.170Z,0
2019-03-30T02:19:49.278Z,0
2019-03-30T02:20:15.388Z,0
2019-03-30T02:20:43.475Z,0
2019-03-30T02:21:09.578Z,0
2019-03-30T02:21:35.715Z,0
2019-03-30T02:22:01.824Z,0
2019-03-30T02:22:27.925Z,0
2019-03-30T02:22:54.028Z,0
2019-03-30T02:23:20.145Z,0
2019-03-30T02:23:46.250Z,0
2019-03-30T02:24:12.366Z,0
2019-03-30T02:24:38.471Z,0
2019-03-30T02:25:04.615Z,0
2019-03-30T02:25:30.717Z,0
2019-03-30T02:25:56.852Z,0
2019-03-30T02:26:23.028Z,0
2019-03-30T02:26:49.130Z,0
2019-03-30T02:27:15.240Z,0
2019-03-30T02:27:41.381Z,0
2019-03-30T02:28:07.514Z,0
2019-03-30T02:28:33.620Z,0
2019-03-30T02:28:59.726Z,0
2019-03-30T02:29:25.830Z,0
2019-03-30T02:29:51.935Z,0
2019-03-30T02:30:18.135Z,0
2019-03-30T02:30:44.244Z,0
2019-03-30T02:31:10.387Z,0
2019-03-30T02:31:36.522Z,0
2019-03-30T02:32:02.628Z,0
2019-03-30T02:32:28.730Z,0
2019-03-30T02:32:54.842Z,0
2019-03-30T02:33:21.068Z,0
2019-03-30T02:33:47.178Z,0
2019-03-30T02:34:13.289Z,0
2019-03-30T02:34:39.425Z,0
2019-03-30T02:35:05.726Z,0
2019-03-30T02:35:31.899Z,0
2019-03-30T02:35:58.118Z,0
2019-03-30T02:36:24.268Z,0
2019-03-30T02:36:50.399Z,0
2019-03-30T02:37:16.539Z,0
2019-03-30T02:37:42.674Z,0
2019-03-30T02:38:08.788Z,0
2019-03-30T02:38:34.928Z,0
2019-03-30T02:39:01.039Z,0
2019-03-30T02:39:27.213Z,0
2019-03-30T02:39:53.367Z,0
2019-03-30T02:40:19.478Z,0
2019-03-30T02:40:45.597Z,0
2019-03-30T02:41:11.710Z,0
2019-03-30T02:41:37.848Z,0
2019-03-30T02:42:04.014Z,0
2019-03-30T02:42:30.126Z,0
2019-03-30T02:42:56.238Z,0
2019-03-30T02:43:22.402Z,0
2019-03-30T02:43:48.513Z,0
2019-03-30T02:44:14.650Z,0
2019-03-30T02:44:40.780Z,0
2019-03-30T02:45:06.919Z,0
2019-03-30T02:45:33.047Z,0
2019-03-30T02:45:59.220Z,0
2019-03-30T02:46:25.386Z,0
2019-03-30T02:46:51.595Z,0
2019-03-30T02:47:17.760Z,0
2019-03-30T02:47:43.876Z,0
2019-03-30T02:48:10.013Z,0
2019-03-30T02:48:36.186Z,0
2019-03-30T02:49:02.321Z,0
2019-03-30T02:49:28.431Z,0
2019-03-30T02:49:54.598Z,0
2019-03-30T02:50:20.759Z,0
2019-03-30T02:50:50.814Z,0
2019-03-30T02:51:16.933Z,0
2019-03-30T02:51:43.066Z,0
2019-03-30T02:52:09.178Z,0
2019-03-30T02:52:35.306Z,0
2019-03-30T02:53:01.452Z,0
2019-03-30T02:53:27.612Z,0
2019-03-30T02:53:53.722Z,0
2019-03-30T02:54:19.887Z,0
2019-03-30T02:54:46.056Z,0
2019-03-30T02:55:12.815Z,0
2019-03-30T02:55:39.103Z,0
2019-03-30T02:56:05.205Z,0
2019-03-30T02:56:31.328Z,0
2019-03-30T02:56:57.430Z,0
2019-03-30T02:57:23.586Z,0
2019-03-30T02:57:49.726Z,0
2019-03-30T02:58:15.864Z,0
2019-03-30T02:58:41.996Z,0
2019-03-30T02:59:08.178Z,0
2019-03-30T02:59:34.312Z,0
2019-03-30T03:00:00.537Z,0
2019-03-30T03:00:26.673Z,0
2019-03-30T03:00:52.833Z,0
2019-03-30T03:01:18.973Z,0
2019-03-30T03:01:45.141Z,0
2019-03-30T03:02:11.242Z,0
2019-03-30T03:02:37.355Z,0
2019-03-30T03:03:03.497Z,0
2019-03-30T03:03:29.631Z,0
2019-03-30T03:03:55.766Z,0
2019-03-30T03:04:21.899Z,0
2019-03-30T03:04:48.005Z,0
2019-03-30T03:05:14.163Z,0
2019-03-30T03:05:40.347Z,0
2019-03-30T03:06:06.445Z,0
2019-03-30T03:06:32.584Z,0
2019-03-30T03:06:58.699Z,0
2019-03-30T03:07:24.837Z,0
2019-03-30T03:07:51.006Z,0
2019-03-30T03:08:17.138Z,0
2019-03-30T03:08:43.275Z,0
2019-03-30T03:09:09.410Z,0
2019-03-30T03:09:35.554Z,0
2019-03-30T03:10:01.704Z,0
2019-03-30T03:10:27.831Z,0
2019-03-30T03:10:53.941Z,0
2019-03-30T03:11:20.098Z,0
2019-03-30T03:11:46.297Z,0
2019-03-30T03:12:12.433Z,0
2019-03-30T03:12:38.567Z,0
2019-03-30T03:13:04.733Z,0
2019-03-30T03:13:30.898Z,0
2019-03-30T03:13:57.008Z,0
2019-03-30T03:14:23.171Z,0
2019-03-30T03:14:49.281Z,0
2019-03-30T03:15:15.412Z,0
2019-03-30T03:15:41.585Z,0
2019-03-30T03:16:07.807Z,0
2019-03-30T03:16:34.972Z,0
2019-03-30T03:17:01.111Z,0
2019-03-30T03:17:27.246Z,0
2019-03-30T03:17:53.367Z,0
2019-03-30T03:18:19.495Z,0
2019-03-30T03:18:45.647Z,0
2019-03-30T03:19:11.781Z,0
2019-03-30T03:19:38.027Z,0
2019-03-30T03:20:04.166Z,0
2019-03-30T03:20:30.274Z,0
2019-03-30T03:21:07.061Z,0
2019-03-30T03:21:24.804Z,0
2019-03-30T03:21:50.942Z,0
2019-03-30T03:22:17.109Z,0
2019-03-30T03:22:43.278Z,0
2019-03-30T03:23:09.450Z,0
2019-03-30T03:23:35.554Z,0
2019-03-30T03:24:01.720Z,0
2019-03-30T03:24:27.909Z,0
2019-03-30T03:24:54.013Z,0
2019-03-30T03:25:20.174Z,0
2019-03-30T03:25:46.309Z,0
2019-03-30T03:26:12.449Z,0
2019-03-30T03:26:38.582Z,0
2019-03-30T03:27:04.779Z,0
2019-03-30T03:27:30.914Z,0
2019-03-30T03:27:57.026Z,0
2019-03-30T03:28:23.160Z,0
2019-03-30T03:28:49.297Z,0
2019-03-30T03:29:15.404Z,0
2019-03-30T03:29:43.795Z,0
2019-03-30T03:30:08.722Z,0
2019-03-30T03:30:34.859Z,0
2019-03-30T03:31:01.040Z,0
2019-03-30T03:31:27.541Z,0
2019-03-30T03:31:53.750Z,0
2019-03-30T03:32:19.934Z,0
2019-03-30T03:32:46.113Z,0
2019-03-30T03:33:12.311Z,0
2019-03-30T03:33:38.456Z,0
2019-03-30T03:34:04.613Z,0
2019-03-30T03:34:30.721Z,0
2019-03-30T03:34:56.890Z,0
2019-03-30T03:35:23.025Z,0
2019-03-30T03:35:49.141Z,0
2019-03-30T03:36:15.273Z,0
2019-03-30T03:36:41.430Z,0
2019-03-30T03:37:07.564Z,0
2019-03-30T03:37:44.397Z,0
2019-03-30T03:38:02.805Z,0
2019-03-30T03:38:28.940Z,0
2019-03-30T03:38:55.044Z,0
2019-03-30T03:39:21.208Z,0
2019-03-30T03:39:47.350Z,0
2019-03-30T03:40:13.574Z,0
2019-03-30T03:40:39.711Z,0
2019-03-30T03:41:05.830Z,0
2019-03-30T03:41:31.927Z,0
2019-03-30T03:41:58.034Z,0
2019-03-30T03:42:24.148Z,0
2019-03-30T03:42:50.282Z,0
2019-03-30T03:43:16.428Z,0
2019-03-30T03:43:42.596Z,0
2019-03-30T03:44:08.718Z,0
2019-03-30T03:44:34.827Z,0
2019-03-30T03:45:01.005Z,0
2019-03-30T03:45:27.140Z,0
2019-03-30T03:45:53.243Z,0
2019-03-30T03:46:19.385Z,0
2019-03-30T03:46:45.538Z,0
2019-03-30T03:47:11.636Z,0
2019-03-30T03:47:37.750Z,0
2019-03-30T03:48:03.882Z,0
2019-03-30T03:48:30.015Z,0
2019-03-30T03:48:56.125Z,0
2019-03-30T03:49:22.267Z,0
2019-03-30T03:49:48.407Z,0
2019-03-30T03:50:14.515Z,0
2019-03-30T03:50:40.643Z,0
2019-03-30T03:51:24.424Z,0
2019-03-30T03:51:34.922Z,0
2019-03-30T03:52:01.057Z,0
2019-03-30T03:52:27.196Z,0
2019-03-30T03:52:53.316Z,0
2019-03-30T03:53:19.475Z,0
2019-03-30T03:53:45.582Z,0
2019-03-30T03:54:11.870Z,0
2019-03-30T03:54:38.043Z,0
2019-03-30T03:55:04.151Z,0
2019-03-30T03:55:30.258Z,0
2019-03-30T03:55:56.425Z,0
2019-03-30T03:56:22.540Z,0
2019-03-30T03:56:48.699Z,0
2019-03-30T03:57:14.886Z,0
2019-03-30T03:57:41.026Z,0
2019-03-30T03:58:07.186Z,0
2019-03-30T03:58:33.351Z,0
2019-03-30T03:58:59.547Z,0
2019-03-30T03:59:25.667Z,0
2019-03-30T03:59:51.828Z,0
2019-03-30T04:00:18.006Z,0
2019-03-30T04:00:44.108Z,0
2019-03-30T04:01:10.276Z,0
2019-03-30T04:01:36.497Z,0
2019-03-30T04:02:02.660Z,0
2019-03-30T04:02:28.767Z,0
2019-03-30T04:02:54.906Z,0
2019-03-30T04:03:21.008Z,0
2019-03-30T04:03:47.135Z,0
2019-03-30T04:04:13.240Z,0
2019-03-30T04:04:39.420Z,0
2019-03-30T04:05:06.511Z,0
2019-03-30T04:05:32.651Z,0
2019-03-30T04:05:58.790Z,0
2019-03-30T04:06:24.870Z,0
2019-03-30T04:06:50.979Z,0
2019-03-30T04:07:17.116Z,0
2019-03-30T04:07:43.307Z,0
2019-03-30T04:08:09.409Z,0
2019-03-30T04:08:35.578Z,0
2019-03-30T04:09:01.680Z,0
2019-03-30T04:09:27.823Z,0
2019-03-30T04:09:53.983Z,0
2019-03-30T04:10:20.096Z,0
2019-03-30T04:10:46.195Z,0
2019-03-30T04:11:12.338Z,0
2019-03-30T04:11:38.446Z,0
2019-03-30T04:12:04.594Z,0
2019-03-30T04:12:30.746Z,0
2019-03-30T04:12:56.919Z,0
2019-03-30T04:13:24.073Z,0
2019-03-30T04:13:50.182Z,0
2019-03-30T04:14:16.342Z,0
2019-03-30T04:14:42.535Z,0
2019-03-30T04:15:08.693Z,0
2019-03-30T04:15:34.853Z,0
2019-03-30T04:16:00.971Z,0
2019-03-30T04:16:27.080Z,0
2019-03-30T04:16:53.215Z,0
2019-03-30T04:17:19.410Z,0
2019-03-30T04:17:45.513Z,0
2019-03-30T04:18:11.627Z,0
2019-03-30T04:18:37.796Z,0
2019-03-30T04:19:04.921Z,0
2019-03-30T04:19:31.035Z,0
2019-03-30T04:19:57.255Z,0
2019-03-30T04:20:23.331Z,0
2019-03-30T04:20:49.447Z,0
2019-03-30T04:21:15.584Z,0
2019-03-30T04:21:45.039Z,0
2019-03-30T04:22:10.836Z,0
2019-03-30T04:22:36.942Z,0
2019-03-30T04:23:03.065Z,0
2019-03-30T04:23:29.190Z,0
2019-03-30T04:23:56.288Z,0
2019-03-30T04:24:22.427Z,0
2019-03-30T04:24:48.567Z,0
2019-03-30T04:25:14.671Z,0
2019-03-30T04:25:40.815Z,0
2019-03-30T04:26:06.954Z,0
2019-03-30T04:26:33.101Z,0
2019-03-30T04:26:59.240Z,0
2019-03-30T04:27:25.356Z,0
2019-03-30T04:27:51.520Z,0
2019-03-30T04:28:17.635Z,0
2019-03-30T04:28:43.734Z,0
2019-03-30T04:29:09.933Z,0
2019-03-30T04:29:36.063Z,0
2019-03-30T04:30:02.171Z,0
2019-03-30T04:30:28.343Z,0
2019-03-30T04:30:54.467Z,0
2019-03-30T04:31:20.570Z,0
2019-03-30T04:31:46.704Z,0
2019-03-30T04:32:12.841Z,0
2019-03-30T04:32:38.975Z,0
2019-03-30T04:33:05.094Z,0
2019-03-30T04:33:31.281Z,0
2019-03-30T04:33:57.420Z,0
2019-03-30T04:34:23.554Z,0
2019-03-30T04:34:49.757Z,0
2019-03-30T04:35:16.135Z,0
2019-03-30T04:35:42.277Z,0
2019-03-30T04:36:08.442Z,4
2019-03-30T04:36:34.603Z,4
2019-03-30T04:37:00.738Z,4
2019-03-30T04:37:26.891Z,4
2019-03-30T04:37:53.065Z,4
2019-03-30T04:38:19.888Z,4
2019-03-30T04:38:46.046Z,0
2019-03-30T04:39:12.164Z,0
2019-03-30T04:39:38.266Z,4
2019-03-30T04:40:04.440Z,4
2019-03-30T04:40:30.547Z,4
2019-03-30T04:40:56.751Z,4
2019-03-30T04:41:22.945Z,4
2019-03-30T04:41:49.081Z,8
2019-03-30T04:42:15.181Z,4
2019-03-30T04:42:41.341Z,4
2019-03-30T04:43:07.447Z,4
2019-03-30T04:43:33.564Z,8
2019-03-30T04:43:59.666Z,8
2019-03-30T04:44:25.795Z,8
2019-03-30T04:44:51.904Z,8
2019-03-30T04:45:18.047Z,8
2019-03-30T04:45:44.247Z,12
2019-03-30T04:46:10.314Z,8
2019-03-30T04:46:36.426Z,12
2019-03-30T04:47:02.561Z,16
2019-03-30T04:47:28.704Z,12
2019-03-30T04:47:54.871Z,16
2019-03-30T04:48:21.006Z,16
2019-03-30T04:48:47.140Z,20
2019-03-30T04:49:13.303Z,20
2019-03-30T04:49:39.411Z,20
2019-03-30T04:50:05.801Z,24
2019-03-30T04:50:31.941Z,24
2019-03-30T04:50:58.046Z,24
2019-03-30T04:51:24.151Z,28
2019-03-30T04:51:57.181Z,28
2019-03-30T04:52:19.080Z,32
2019-03-30T04:52:45.185Z,36
2019-03-30T04:53:11.298Z,32
2019-03-30T04:53:37.530Z,36
2019-03-30T04:54:03.577Z,44
2019-03-30T04:54:29.684Z,44
2019-03-30T04:54:55.792Z,48
2019-03-30T04:55:21.896Z,52
2019-03-30T04:55:48.001Z,52
2019-03-30T04:56:14.112Z,60
2019-03-30T04:56:40.217Z,64
2019-03-30T04:57:06.329Z,68
2019-03-30T04:57:32.439Z,72
2019-03-30T04:58:00.521Z,76
2019-03-30T04:58:26.658Z,80
2019-03-30T04:58:52.791Z,84
2019-03-30T04:59:18.923Z,88
2019-03-30T04:59:45.034Z,96
2019-03-30T05:00:11.177Z,104
2019-03-30T05:00:37.286Z,108
2019-03-30T05:01:03.476Z,112
2019-03-30T05:01:29.590Z,124
2019-03-30T05:01:55.756Z,128
2019-03-30T05:02:21.867Z,136
2019-03-30T05:02:47.979Z,144
2019-03-30T05:03:14.079Z,148
2019-03-30T05:03:40.219Z,160
2019-03-30T05:04:06.336Z,168
2019-03-30T05:04:32.442Z,176
2019-03-30T05:04:58.607Z,184
2019-03-30T05:05:24.715Z,196
2019-03-30T05:05:50.897Z,208
2019-03-30T05:06:17.001Z,216
2019-03-30T05:06:43.110Z,224
2019-03-30T05:07:09.222Z,236
2019-03-30T05:07:35.381Z,248
2019-03-30T05:08:01.459Z,264
2019-03-30T05:08:27.602Z,276
2019-03-30T05:08:53.708Z,292
2019-03-30T05:09:19.871Z,304
2019-03-30T05:09:45.982Z,316
2019-03-30T05:10:12.082Z,336
2019-03-30T05:10:38.221Z,348
2019-03-30T05:11:04.328Z,364
2019-03-30T05:11:30.436Z,380
2019-03-30T05:11:56.572Z,396
2019-03-30T05:12:22.684Z,416
2019-03-30T05:12:48.818Z,428
2019-03-30T05:13:14.923Z,448
2019-03-30T05:13:41.032Z,464
2019-03-30T05:14:07.167Z,488
2019-03-30T05:14:33.272Z,504
2019-03-30T05:14:59.379Z,524
2019-03-30T05:15:25.492Z,548
2019-03-30T05:15:51.600Z,572
2019-03-30T05:16:17.710Z,592
2019-03-30T05:16:43.805Z,612
2019-03-30T05:17:09.914Z,636
2019-03-30T05:17:46.663Z,656
2019-03-30T05:18:04.144Z,676
2019-03-30T05:18:30.275Z,700
2019-03-30T05:18:56.385Z,720
2019-03-30T05:19:22.522Z,744
2019-03-30T05:19:48.650Z,768
2019-03-30T05:20:14.756Z,792
2019-03-30T05:20:40.957Z,820
2019-03-30T05:21:07.012Z,848
2019-03-30T05:21:33.117Z,876
2019-03-30T05:22:11.344Z,904
2019-03-30T05:22:27.408Z,936
2019-03-30T05:22:54.503Z,972
2019-03-30T05:23:20.610Z,1000
2019-03-30T05:23:46.719Z,1028
2019-03-30T05:24:12.854Z,1060
2019-03-30T05:24:38.989Z,1088
2019-03-30T05:25:05.099Z,1116
2019-03-30T05:25:31.246Z,1148
2019-03-30T05:25:57.349Z,1180
2019-03-30T05:26:23.482Z,1212
2019-03-30T05:26:49.586Z,1248
2019-03-30T05:27:15.691Z,1284
2019-03-30T05:27:41.801Z,1320
2019-03-30T05:28:07.944Z,1356
2019-03-30T05:28:34.054Z,1388
2019-03-30T05:29:00.163Z,1424
2019-03-30T05:29:26.263Z,1456
2019-03-30T05:29:52.373Z,1492
2019-03-30T05:30:18.538Z,1520
2019-03-30T05:30:44.645Z,1556
2019-03-30T05:31:10.797Z,1588
2019-03-30T05:31:36.905Z,1624
2019-03-30T05:32:03.043Z,1656
2019-03-30T05:32:29.145Z,1688
2019-03-30T05:33:05.316Z,1724
2019-03-30T05:33:23.387Z,1760
2019-03-30T05:33:49.545Z,1792
2019-03-30T05:34:15.663Z,1824
2019-03-30T05:34:41.761Z,1860
2019-03-30T05:35:07.876Z,1892
2019-03-30T05:35:33.987Z,1928
2019-03-30T05:36:00.088Z,1964
2019-03-30T05:36:26.198Z,1992
2019-03-30T05:36:52.304Z,2024
2019-03-30T05:37:18.409Z,2060
2019-03-30T05:37:44.541Z,2096
2019-03-30T05:38:11.638Z,2136
2019-03-30T05:38:37.745Z,2172
2019-03-30T05:39:03.850Z,2212
2019-03-30T05:39:29.993Z,2248
2019-03-30T05:39:56.097Z,2280
2019-03-30T05:40:22.208Z,2316
2019-03-30T05:40:48.313Z,2352
2019-03-30T05:41:14.419Z,2388
2019-03-30T05:41:40.530Z,2424
2019-03-30T05:42:06.641Z,2460
2019-03-30T05:42:32.749Z,2496
2019-03-30T05:42:58.852Z,2536
2019-03-30T05:43:24.994Z,2572
2019-03-30T05:43:51.128Z,2608
2019-03-30T05:44:17.256Z,2648
2019-03-30T05:44:43.362Z,2688
2019-03-30T05:45:09.473Z,2724
2019-03-30T05:45:35.585Z,2764
2019-03-30T05:46:01.722Z,2800
2019-03-30T05:46:27.824Z,2836
2019-03-30T05:46:53.928Z,2876
2019-03-30T05:47:20.039Z,2912
2019-03-30T05:47:46.172Z,2956
2019-03-30T05:48:12.277Z,2992
2019-03-30T05:48:38.388Z,3032
2019-03-30T05:49:04.498Z,3068
2019-03-30T05:49:30.612Z,3108
2019-03-30T05:49:56.744Z,3148
2019-03-30T05:50:22.848Z,3184
2019-03-30T05:50:48.957Z,3220
2019-03-30T05:51:15.068Z,3256
2019-03-30T05:51:41.170Z,3296
2019-03-30T05:52:07.280Z,3332
2019-03-30T05:52:36.355Z,3372
2019-03-30T05:53:02.488Z,3408
2019-03-30T05:53:28.616Z,3444
2019-03-30T05:53:54.754Z,3484
2019-03-30T05:54:20.861Z,3524
2019-03-30T05:54:46.969Z,3556
2019-03-30T05:55:13.079Z,3592
2019-03-30T05:55:39.185Z,3632
2019-03-30T05:56:05.327Z,3672
2019-03-30T05:56:31.431Z,3708
2019-03-30T05:56:57.537Z,3740
2019-03-30T05:57:23.674Z,3780
2019-03-30T05:57:49.803Z,3820
2019-03-30T05:58:15.919Z,3860
2019-03-30T05:58:42.078Z,3896
2019-03-30T05:59:08.185Z,3932
2019-03-30T05:59:34.286Z,3968
2019-03-30T06:00:00.423Z,4008
2019-03-30T06:00:26.529Z,4044
2019-03-30T06:00:52.704Z,4084
2019-03-30T06:01:18.806Z,4120
2019-03-30T06:01:44.916Z,4160
2019-03-30T06:02:11.053Z,4200
2019-03-30T06:02:37.161Z,4232
2019-03-30T06:03:03.297Z,4272
2019-03-30T06:03:29.405Z,4308
2019-03-30T06:03:55.534Z,4344
2019-03-30T06:04:21.645Z,4388
2019-03-30T06:04:47.755Z,4420
2019-03-30T06:05:14.489Z,4456
2019-03-30T06:05:40.616Z,4492
2019-03-30T06:06:06.728Z,4536
2019-03-30T06:06:32.833Z,4568
2019-03-30T06:06:58.935Z,4604
2019-03-30T06:07:25.043Z,4640
2019-03-30T06:07:51.151Z,4680
2019-03-30T06:08:17.280Z,4716
2019-03-30T06:08:43.417Z,4748
2019-03-30T06:09:09.522Z,4788
2019-03-30T06:09:35.632Z,4828
2019-03-30T06:10:01.762Z,4864
2019-03-30T06:10:27.874Z,4908
2019-03-30T06:10:54.640Z,4936
2019-03-30T06:11:20.781Z,4980
2019-03-30T06:11:46.885Z,5020
2019-03-30T06:12:13.029Z,5060
2019-03-30T06:12:39.225Z,5096
2019-03-30T06:13:05.288Z,5136
2019-03-30T06:13:31.399Z,5172
2019-03-30T06:13:57.507Z,5212
2019-03-30T06:14:23.638Z,5252
2019-03-30T06:14:49.747Z,5284
2019-03-30T06:15:15.974Z,5328
2019-03-30T06:15:42.078Z,5360
2019-03-30T06:16:08.191Z,5396
2019-03-30T06:16:34.323Z,5440
2019-03-30T06:17:00.460Z,5468
2019-03-30T06:17:26.598Z,5512
2019-03-30T06:17:52.712Z,5548
2019-03-30T06:18:19.809Z,5588
2019-03-30T06:18:45.915Z,5616